createdAt,value
2023-08-28T00:00:43.170Z,4
2023-08-28T00:01:43.201Z,1
2023-08-28T00:02:43.249Z,4
2023-08-28T00:03:43.200Z,2
2023-08-28T00:04:43.202Z,2
2023-08-28T00:05:43.206Z,2
2023-08-28T00:06:43.203Z,5
2023-08-28T00:07:43.182Z,3
2023-08-28T00:10:43.196Z,3
2023-08-28T00:11:43.196Z,2
2023-08-28T00:12:43.183Z,4
2023-08-28T00:13:43.195Z,5
2023-08-28T00:15:43.168Z,4
2023-08-28T00:16:43.169Z,2
2023-08-28T00:17:43.202Z,3
2023-08-28T00:18:43.205Z,4
2023-08-28T00:19:43.185Z,3
2023-08-28T00:21:43.193Z,2
2023-08-28T00:22:43.164Z,3
2023-08-28T00:23:43.184Z,2
2023-08-28T00:24:43.175Z,3
2023-08-28T00:25:43.188Z,1
2023-08-28T00:26:43.213Z,2
2023-08-28T00:27:43.183Z,2
2023-08-28T00:28:43.192Z,3
2023-08-28T00:29:43.185Z,3
2023-08-28T00:30:43.210Z,4
2023-08-28T00:31:43.326Z,2
2023-08-28T00:32:43.198Z,1
2023-08-28T00:33:43.230Z,3
2023-08-28T00:34:44.357Z,2
2023-08-28T00:35:43.456Z,1
2023-08-28T00:36:43.378Z,3
2023-08-28T00:37:43.468Z,3
2023-08-28T00:38:43.522Z,2
2023-08-28T00:40:43.164Z,2
2023-08-28T00:41:43.203Z,3
2023-08-28T00:42:43.204Z,2
2023-08-28T00:43:43.194Z,3
2023-08-28T00:45:43.307Z,4
2023-08-28T00:46:43.178Z,5
2023-08-28T00:47:43.238Z,1
2023-08-28T00:48:43.179Z,3
2023-08-28T00:49:43.196Z,1
2023-08-28T00:50:43.188Z,4
2023-08-28T00:51:43.174Z,4
2023-08-28T00:52:43.203Z,2
2023-08-28T00:53:43.182Z,2
2023-08-28T00:54:43.217Z,3
2023-08-28T00:55:43.197Z,4
2023-08-28T00:57:43.197Z,5
2023-08-28T00:58:43.174Z,4
2023-08-28T00:59:43.167Z,5
2023-08-28T01:00:45.638Z,3
2023-08-28T01:01:43.231Z,2
2023-08-28T01:02:43.206Z,1
2023-08-28T01:03:43.186Z,3
2023-08-28T01:04:43.246Z,2
2023-08-28T01:05:43.231Z,3
2023-08-28T01:06:43.193Z,1
2023-08-28T01:07:43.188Z,3
2023-08-28T01:08:43.182Z,3
2023-08-28T01:09:43.185Z,3
2023-08-28T01:10:43.225Z,5
2023-08-28T01:11:43.187Z,3
2023-08-28T01:12:43.355Z,3
2023-08-28T01:13:43.185Z,3
2023-08-28T01:14:43.403Z,3
2023-08-28T01:15:43.335Z,3
2023-08-28T01:16:43.188Z,3
2023-08-28T01:17:43.222Z,2
2023-08-28T01:18:43.193Z,3
2023-08-28T01:19:43.196Z,2
2023-08-28T01:20:43.181Z,3
2023-08-28T01:21:43.190Z,3
2023-08-28T01:22:43.185Z,3
2023-08-28T01:23:43.193Z,2
2023-08-28T01:24:43.216Z,5
2023-08-28T01:25:43.194Z,5
2023-08-28T01:26:43.178Z,2
2023-08-28T01:27:43.179Z,2
2023-08-28T01:28:43.190Z,2
2023-08-28T01:30:43.207Z,2
2023-08-28T01:31:43.237Z,4
2023-08-28T01:32:43.256Z,3
2023-08-28T01:33:43.189Z,4
2023-08-28T01:34:43.208Z,3
2023-08-28T01:35:43.168Z,4
2023-08-28T01:36:43.165Z,2
2023-08-28T01:37:43.192Z,2
2023-08-28T01:38:43.200Z,3
2023-08-28T01:40:43.177Z,3
2023-08-28T01:41:43.183Z,3
2023-08-28T01:42:43.172Z,2
2023-08-28T01:43:43.189Z,3
2023-08-28T01:44:43.197Z,2
2023-08-28T01:45:43.221Z,2
2023-08-28T01:46:43.234Z,3
2023-08-28T01:47:43.237Z,3
2023-08-28T01:48:43.195Z,2
2023-08-28T01:50:43.174Z,2
2023-08-28T01:51:43.177Z,2
2023-08-28T01:52:43.193Z,1
2023-08-28T01:53:43.228Z,3
2023-08-28T01:54:43.174Z,3
2023-08-28T01:55:43.175Z,3
2023-08-28T01:56:43.176Z,2
2023-08-28T01:57:43.205Z,4
2023-08-28T01:58:43.204Z,5
2023-08-28T01:59:43.194Z,4
2023-08-28T02:01:43.186Z,4
2023-08-28T02:02:43.290Z,1
2023-08-28T02:03:43.196Z,3
2023-08-28T02:04:43.211Z,2
2023-08-28T02:05:43.187Z,3
2023-08-28T02:06:43.225Z,3
2023-08-28T02:07:43.182Z,2
2023-08-28T02:09:43.178Z,3
2023-08-28T02:10:43.190Z,2
2023-08-28T02:11:43.188Z,5
2023-08-28T02:12:43.181Z,4
2023-08-28T02:13:43.209Z,2
2023-08-28T02:14:43.202Z,2
2023-08-28T02:15:43.214Z,2
2023-08-28T02:16:43.281Z,1
2023-08-28T02:17:43.352Z,2
2023-08-28T02:18:43.206Z,2
2023-08-28T02:19:43.199Z,3
2023-08-28T02:20:43.197Z,4
2023-08-28T02:21:43.198Z,3
2023-08-28T02:22:43.196Z,2
2023-08-28T02:23:43.222Z,2
2023-08-28T02:25:43.189Z,3
2023-08-28T02:26:43.200Z,5
2023-08-28T02:27:43.177Z,1
2023-08-28T02:28:43.221Z,3
2023-08-28T02:30:43.227Z,2
2023-08-28T02:31:43.181Z,2
2023-08-28T02:32:43.235Z,3
2023-08-28T02:33:43.212Z,2
2023-08-28T02:34:43.227Z,2
2023-08-28T02:35:43.210Z,2
2023-08-28T02:36:43.226Z,2
2023-08-28T02:37:43.219Z,4
2023-08-28T02:38:43.475Z,2
2023-08-28T02:40:43.200Z,3
2023-08-28T02:41:43.208Z,3
2023-08-28T02:42:43.190Z,3
2023-08-28T02:43:43.198Z,3
2023-08-28T02:44:43.226Z,4
2023-08-28T02:45:43.204Z,4
2023-08-28T02:46:43.246Z,3
2023-08-28T02:47:43.248Z,3
2023-08-28T02:48:43.196Z,2
2023-08-28T02:49:43.217Z,3
2023-08-28T02:50:43.187Z,2
2023-08-28T02:51:43.204Z,2
2023-08-28T02:52:43.183Z,3
2023-08-28T02:53:43.285Z,2
2023-08-28T02:54:43.191Z,2
2023-08-28T02:55:43.208Z,2
2023-08-28T02:56:43.208Z,4
2023-08-28T02:57:43.229Z,1
2023-08-28T02:58:43.214Z,3
2023-08-28T03:00:43.413Z,3
2023-08-28T03:01:43.274Z,3
2023-08-28T03:02:43.294Z,2
2023-08-28T03:03:43.309Z,3
2023-08-28T03:05:43.190Z,5
2023-08-28T03:06:43.211Z,2
2023-08-28T03:07:43.180Z,3
2023-08-28T03:08:43.191Z,2
2023-08-28T03:09:43.194Z,3
2023-08-28T03:10:43.201Z,3
2023-08-28T03:11:43.196Z,2
2023-08-28T03:12:43.187Z,2
2023-08-28T03:13:43.202Z,2
2023-08-28T03:14:43.282Z,3
2023-08-28T03:15:43.318Z,2
2023-08-28T03:16:43.414Z,3
2023-08-28T03:17:43.490Z,2
2023-08-28T03:18:43.609Z,3
2023-08-28T03:19:43.268Z,2
2023-08-28T03:20:43.299Z,4
2023-08-28T03:21:43.189Z,3
2023-08-28T03:22:43.198Z,3
2023-08-28T03:23:43.211Z,2
2023-08-28T03:24:43.195Z,4
2023-08-28T03:25:43.189Z,2
2023-08-28T03:26:43.190Z,3
2023-08-28T03:27:43.204Z,3
2023-08-28T03:28:43.185Z,2
2023-08-28T03:29:43.201Z,2
2023-08-28T03:30:43.234Z,1
2023-08-28T03:31:43.244Z,4
2023-08-28T03:32:43.328Z,2
2023-08-28T03:33:43.214Z,3
2023-08-28T03:34:43.192Z,2
2023-08-28T03:35:43.215Z,2
2023-08-28T03:36:43.187Z,3
2023-08-28T03:37:43.209Z,2
2023-08-28T03:38:43.217Z,4
2023-08-28T03:39:43.194Z,5
2023-08-28T03:40:43.198Z,3
2023-08-28T03:41:43.209Z,3
2023-08-28T03:42:43.187Z,2
2023-08-28T03:43:43.203Z,2
2023-08-28T03:44:43.218Z,4
2023-08-28T03:45:43.235Z,3
2023-08-28T03:46:43.209Z,3
2023-08-28T03:47:43.273Z,2
2023-08-28T03:49:43.222Z,3
2023-08-28T03:50:43.201Z,3
2023-08-28T03:51:43.183Z,2
2023-08-28T03:52:43.200Z,4
2023-08-28T03:53:43.219Z,2
2023-08-28T03:54:43.209Z,2
2023-08-28T03:55:43.209Z,3
2023-08-28T03:56:43.211Z,2
2023-08-28T03:57:43.200Z,3
2023-08-28T03:58:43.203Z,4
2023-08-28T03:59:43.191Z,3
2023-08-28T04:00:43.222Z,5
2023-08-28T04:01:43.245Z,3
2023-08-28T04:02:43.241Z,4
2023-08-28T04:03:43.295Z,4
2023-08-28T04:04:45.854Z,3
2023-08-28T04:05:43.212Z,4
2023-08-28T04:06:43.203Z,2
2023-08-28T04:07:43.227Z,3
2023-08-28T04:08:43.215Z,2
2023-08-28T04:09:43.223Z,2
2023-08-28T04:10:43.227Z,3
2023-08-28T04:11:43.241Z,2
2023-08-28T04:12:43.254Z,4
2023-08-28T04:13:43.188Z,2
2023-08-28T04:14:43.200Z,4
2023-08-28T04:15:43.238Z,3
2023-08-28T04:16:43.252Z,3
2023-08-28T04:17:43.260Z,5
2023-08-28T04:18:43.232Z,3
2023-08-28T04:20:43.210Z,3
2023-08-28T04:21:43.230Z,2
2023-08-28T04:22:43.209Z,5
2023-08-28T04:23:43.216Z,6
2023-08-28T04:24:43.215Z,3
2023-08-28T04:25:43.219Z,2
2023-08-28T04:26:43.255Z,4
2023-08-28T04:27:43.218Z,2
2023-08-28T04:28:43.224Z,3
2023-08-28T04:29:43.206Z,3
2023-08-28T04:30:43.224Z,2
2023-08-28T04:31:43.234Z,3
2023-08-28T04:32:43.256Z,2
2023-08-28T04:33:43.219Z,3
2023-08-28T04:34:43.244Z,3
2023-08-28T04:35:43.237Z,4
2023-08-28T04:36:43.196Z,3
2023-08-28T04:37:43.280Z,5
2023-08-28T04:38:43.241Z,2
2023-08-28T04:39:43.225Z,3
2023-08-28T04:40:43.232Z,3
2023-08-28T04:41:43.225Z,4
2023-08-28T04:42:43.223Z,2
2023-08-28T04:43:43.201Z,5
2023-08-28T04:44:43.206Z,4
2023-08-28T04:45:43.250Z,2
2023-08-28T04:46:43.209Z,2
2023-08-28T04:47:43.262Z,3
2023-08-28T04:48:43.226Z,2
2023-08-28T04:49:43.268Z,4
2023-08-28T04:50:43.210Z,5
2023-08-28T04:51:43.239Z,2
2023-08-28T04:52:43.207Z,5
2023-08-28T04:53:43.220Z,2
2023-08-28T04:54:43.203Z,3
2023-08-28T04:55:43.220Z,3
2023-08-28T04:56:43.209Z,2
2023-08-28T04:58:43.235Z,3
2023-08-28T04:59:43.194Z,5
2023-08-28T05:00:43.218Z,2
2023-08-28T05:01:43.254Z,2
2023-08-28T05:02:43.230Z,4
2023-08-28T05:03:43.268Z,3
2023-08-28T05:05:45.551Z,3
2023-08-28T05:06:43.225Z,3
2023-08-28T05:07:43.243Z,4
2023-08-28T05:08:43.316Z,3
2023-08-28T05:10:43.203Z,3
2023-08-28T05:11:43.220Z,5
2023-08-28T05:12:43.238Z,3
2023-08-28T05:13:43.229Z,3
2023-08-28T05:15:43.268Z,3
2023-08-28T05:16:43.196Z,2
2023-08-28T05:17:43.228Z,4
2023-08-28T05:18:43.846Z,2
2023-08-28T05:19:43.257Z,3
2023-08-28T05:20:43.216Z,4
2023-08-28T05:21:43.229Z,2
2023-08-28T05:23:43.213Z,3
2023-08-28T05:24:43.236Z,4
2023-08-28T05:25:43.219Z,3
2023-08-28T05:26:43.274Z,3
2023-08-28T05:27:43.230Z,5
2023-08-28T05:28:43.217Z,6
2023-08-28T05:29:43.212Z,3
2023-08-28T05:30:43.214Z,4
2023-08-28T05:31:43.215Z,4
2023-08-28T05:32:43.232Z,2
2023-08-28T05:33:43.235Z,5
2023-08-28T05:34:43.238Z,2
2023-08-28T05:35:43.220Z,4
2023-08-28T05:36:43.222Z,3
2023-08-28T05:37:43.213Z,3
2023-08-28T05:38:43.228Z,3
2023-08-28T05:39:43.238Z,4
2023-08-28T05:40:43.245Z,3
2023-08-28T05:41:43.226Z,4
2023-08-28T05:42:43.220Z,3
2023-08-28T05:43:43.221Z,2
2023-08-28T05:44:43.216Z,3
2023-08-28T05:45:43.247Z,2
2023-08-28T05:46:43.283Z,3
2023-08-28T05:47:43.273Z,3
2023-08-28T05:48:43.233Z,3
2023-08-28T05:49:43.249Z,4
2023-08-28T05:50:43.222Z,2
2023-08-28T05:51:43.220Z,3
2023-08-28T05:52:43.233Z,2
2023-08-28T05:53:44.668Z,5
2023-08-28T05:54:43.243Z,2
2023-08-28T05:55:43.224Z,3
2023-08-28T05:56:43.202Z,3
2023-08-28T05:57:43.225Z,2
2023-08-28T05:58:43.225Z,8
2023-08-28T05:59:45.617Z,3
2023-08-28T06:00:43.258Z,3
2023-08-28T06:01:43.218Z,4
2023-08-28T06:02:43.570Z,4
2023-08-28T06:03:43.269Z,3
2023-08-28T06:04:43.217Z,4
2023-08-28T06:05:43.223Z,2
2023-08-28T06:06:43.236Z,4
2023-08-28T06:07:43.224Z,3
2023-08-28T06:08:43.240Z,6
2023-08-28T06:09:43.219Z,2
2023-08-28T06:10:43.255Z,3
2023-08-28T06:11:43.229Z,4
2023-08-28T06:12:43.225Z,1
2023-08-28T06:13:43.213Z,3
2023-08-28T06:14:43.236Z,2
2023-08-28T06:15:43.244Z,3
2023-08-28T06:16:43.284Z,3
2023-08-28T06:17:43.263Z,3
2023-08-28T06:18:43.193Z,3
2023-08-28T06:19:43.233Z,5
2023-08-28T06:20:43.201Z,3
2023-08-28T06:21:43.222Z,4
2023-08-28T06:22:43.221Z,2
2023-08-28T06:23:43.213Z,3
2023-08-28T06:24:43.216Z,3
2023-08-28T06:26:43.230Z,5
2023-08-28T06:27:43.221Z,5
2023-08-28T06:28:43.215Z,2
2023-08-28T06:29:43.225Z,4
2023-08-28T06:30:43.262Z,4
2023-08-28T06:31:43.226Z,2
2023-08-28T06:32:43.212Z,3
2023-08-28T06:33:43.227Z,4
2023-08-28T06:35:43.210Z,4
2023-08-28T06:36:43.212Z,5
2023-08-28T06:37:43.224Z,2
2023-08-28T06:38:43.240Z,4
2023-08-28T06:40:43.219Z,3
2023-08-28T06:41:43.451Z,4
2023-08-28T06:42:43.283Z,6
2023-08-28T06:43:43.223Z,2
2023-08-28T06:44:43.234Z,5
2023-08-28T06:45:43.222Z,3
2023-08-28T06:46:43.282Z,2
2023-08-28T06:47:43.239Z,3
2023-08-28T06:48:43.212Z,2
2023-08-28T06:49:43.247Z,4
2023-08-28T06:50:43.233Z,4
2023-08-28T06:51:43.238Z,3
2023-08-28T06:52:43.295Z,3
2023-08-28T06:53:43.235Z,5
2023-08-28T06:54:51.061Z,4
2023-08-28T06:55:43.220Z,5
2023-08-28T06:56:43.219Z,5
2023-08-28T06:57:43.232Z,5
2023-08-28T06:58:43.236Z,5
2023-08-28T06:59:43.295Z,4
2023-08-28T07:00:43.250Z,3
2023-08-28T07:01:43.234Z,3
2023-08-28T07:02:43.251Z,3
2023-08-28T07:03:43.367Z,4
2023-08-28T07:04:43.236Z,4
2023-08-28T07:05:43.222Z,5
2023-08-28T07:06:43.235Z,4
2023-08-28T07:07:43.236Z,3
2023-08-28T07:08:43.274Z,4
2023-08-28T07:09:43.214Z,2
2023-08-28T07:10:43.218Z,5
2023-08-28T07:11:43.238Z,3
2023-08-28T07:12:43.230Z,4
2023-08-28T07:13:43.241Z,4
2023-08-28T07:14:43.239Z,2
2023-08-28T07:15:43.247Z,5
2023-08-28T07:16:43.273Z,5
2023-08-28T07:17:43.283Z,4
2023-08-28T07:18:43.246Z,3
2023-08-28T07:19:43.247Z,5
2023-08-28T07:20:43.241Z,4
2023-08-28T07:21:43.240Z,3
2023-08-28T07:22:43.228Z,3
2023-08-28T07:23:43.236Z,2
2023-08-28T07:25:43.232Z,4
2023-08-28T07:26:43.228Z,4
2023-08-28T07:27:43.220Z,3
2023-08-28T07:28:43.309Z,4
2023-08-28T07:30:43.248Z,5
2023-08-28T07:31:43.231Z,3
2023-08-28T07:32:43.246Z,5
2023-08-28T07:33:43.250Z,3
2023-08-28T07:35:43.241Z,3
2023-08-28T07:36:43.236Z,3
2023-08-28T07:37:43.252Z,4
2023-08-28T07:38:43.215Z,4
2023-08-28T07:39:43.231Z,3
2023-08-28T07:40:43.247Z,3
2023-08-28T07:41:43.234Z,3
2023-08-28T07:42:43.237Z,4
2023-08-28T07:43:43.249Z,4
2023-08-28T07:45:43.248Z,4
2023-08-28T07:46:43.247Z,4
2023-08-28T07:47:45.860Z,4
2023-08-28T07:48:43.235Z,3
2023-08-28T07:49:43.261Z,3
2023-08-28T07:50:43.242Z,3
2023-08-28T07:51:43.298Z,4
2023-08-28T07:52:43.219Z,3
2023-08-28T07:53:43.241Z,3
2023-08-28T07:54:43.217Z,3
2023-08-28T07:55:43.251Z,3
2023-08-28T07:56:43.246Z,3
2023-08-28T07:57:43.256Z,4
2023-08-28T07:58:43.247Z,5
2023-08-28T07:59:43.257Z,5
2023-08-28T08:00:43.247Z,3
2023-08-28T08:01:43.316Z,3
2023-08-28T08:02:43.299Z,3
2023-08-28T08:03:43.276Z,6
2023-08-28T08:04:43.241Z,4
2023-08-28T08:05:43.264Z,4
2023-08-28T08:06:43.229Z,5
2023-08-28T08:07:43.237Z,3
2023-08-28T08:08:43.248Z,4
2023-08-28T08:09:43.253Z,3
2023-08-28T08:10:43.242Z,4
2023-08-28T08:11:43.227Z,5
2023-08-28T08:12:43.239Z,4
2023-08-28T08:13:43.239Z,5
2023-08-28T08:14:43.231Z,4
2023-08-28T08:15:43.237Z,3
2023-08-28T08:16:43.244Z,4
2023-08-28T08:17:45.695Z,3
2023-08-28T08:18:43.224Z,5
2023-08-28T08:19:43.249Z,6
2023-08-28T08:20:43.226Z,5
2023-08-28T08:21:43.245Z,4
2023-08-28T08:22:43.248Z,4
2023-08-28T08:23:43.295Z,4
2023-08-28T08:25:43.245Z,5
2023-08-28T08:26:43.225Z,5
2023-08-28T08:27:43.238Z,5
2023-08-28T08:28:43.259Z,3
2023-08-28T08:30:43.242Z,6
2023-08-28T08:31:43.248Z,5
2023-08-28T08:32:43.244Z,4
2023-08-28T08:33:43.244Z,4
2023-08-28T08:34:43.250Z,4
2023-08-28T08:35:43.244Z,4
2023-08-28T08:36:43.245Z,4
2023-08-28T08:37:43.237Z,5
2023-08-28T08:38:43.239Z,4
2023-08-28T08:39:43.232Z,4
2023-08-28T08:40:43.221Z,7
2023-08-28T08:41:45.418Z,5
2023-08-28T08:42:43.266Z,6
2023-08-28T08:43:43.251Z,5
2023-08-28T08:44:43.241Z,26
2023-08-28T08:45:43.317Z,54
2023-08-28T08:46:43.856Z,18
2023-08-28T08:47:43.294Z,9
2023-08-28T08:48:43.225Z,5
2023-08-28T08:49:43.241Z,5
2023-08-28T08:50:43.248Z,5
2023-08-28T08:51:43.292Z,5
2023-08-28T08:52:43.256Z,5
2023-08-28T08:53:43.233Z,6
2023-08-28T08:54:43.247Z,7
2023-08-28T08:55:43.254Z,7
2023-08-28T08:56:43.258Z,7
2023-08-28T08:57:43.256Z,8
2023-08-28T08:58:43.248Z,6
2023-08-28T08:59:43.257Z,8
2023-08-28T09:00:43.261Z,5
2023-08-28T09:01:43.256Z,7
2023-08-28T09:02:43.344Z,6
2023-08-28T09:03:43.303Z,6
2023-08-28T09:04:43.341Z,6
2023-08-28T09:05:43.284Z,5
2023-08-28T09:06:43.245Z,5
2023-08-28T09:07:43.271Z,7
2023-08-28T09:08:43.284Z,6
2023-08-28T09:09:43.302Z,7
2023-08-28T09:10:43.255Z,7
2023-08-28T09:11:43.238Z,8
2023-08-28T09:12:43.260Z,6
2023-08-28T09:13:43.288Z,6
2023-08-28T09:14:43.343Z,7
2023-08-28T09:15:43.295Z,13
2023-08-28T09:16:43.244Z,11
2023-08-28T09:17:43.280Z,10
2023-08-28T09:18:43.260Z,10
2023-08-28T09:19:43.276Z,8
2023-08-28T09:20:43.258Z,8
2023-08-28T09:21:43.247Z,6
2023-08-28T09:22:51.309Z,7
2023-08-28T09:23:44.271Z,7
2023-08-28T09:25:43.256Z,7
2023-08-28T09:26:43.277Z,6
2023-08-28T09:27:43.251Z,8
2023-08-28T09:28:43.258Z,6
2023-08-28T09:29:43.261Z,6
2023-08-28T09:30:43.260Z,7
2023-08-28T09:31:43.369Z,7
2023-08-28T09:32:43.285Z,9
2023-08-28T09:33:53.494Z,6
2023-08-28T09:34:43.279Z,8
2023-08-28T09:35:43.266Z,8
2023-08-28T09:36:45.448Z,7
2023-08-28T09:37:43.281Z,8
2023-08-28T09:38:43.258Z,8
2023-08-28T09:39:43.262Z,8
2023-08-28T09:40:43.256Z,8
2023-08-28T09:42:43.267Z,7
2023-08-28T09:43:43.296Z,9
2023-08-28T09:44:43.286Z,9
2023-08-28T09:45:43.419Z,7
2023-08-28T09:46:43.237Z,9
2023-08-28T09:47:43.526Z,7
2023-08-28T09:48:43.274Z,9
2023-08-28T09:49:43.285Z,9
2023-08-28T09:50:43.305Z,9
2023-08-28T09:51:43.301Z,6
2023-08-28T09:52:43.291Z,7
2023-08-28T09:53:43.253Z,9
2023-08-28T09:54:43.257Z,7
2023-08-28T09:55:43.274Z,7
2023-08-28T09:56:43.269Z,8
2023-08-28T09:57:43.260Z,9
2023-08-28T09:58:43.286Z,8
2023-08-28T09:59:43.268Z,7
2023-08-28T10:00:43.262Z,8
2023-08-28T10:01:43.337Z,9
2023-08-28T10:02:44.523Z,8
2023-08-28T10:03:43.371Z,10
2023-08-28T10:04:43.309Z,6
2023-08-28T10:05:43.289Z,9
2023-08-28T10:06:43.285Z,7
2023-08-28T10:07:43.246Z,8
2023-08-28T10:08:43.268Z,6
2023-08-28T10:10:43.331Z,8
2023-08-28T10:11:43.302Z,8
2023-08-28T10:12:43.305Z,10
2023-08-28T10:13:43.255Z,6
2023-08-28T10:14:43.267Z,6
2023-08-28T10:15:43.260Z,6
2023-08-28T10:16:43.345Z,8
2023-08-28T10:17:43.341Z,6
2023-08-28T10:18:43.285Z,7
2023-08-28T10:19:43.300Z,6
2023-08-28T10:20:43.290Z,7
2023-08-28T10:21:43.251Z,7
2023-08-28T10:22:43.273Z,8
2023-08-28T10:23:43.270Z,7
2023-08-28T10:24:43.275Z,7
2023-08-28T10:25:43.271Z,7
2023-08-28T10:26:43.296Z,6
2023-08-28T10:27:43.284Z,6
2023-08-28T10:28:43.300Z,7
2023-08-28T10:30:43.311Z,6
2023-08-28T10:31:43.272Z,8
2023-08-28T10:32:43.362Z,8
2023-08-28T10:33:43.298Z,7
2023-08-28T10:34:43.314Z,6
2023-08-28T10:35:43.251Z,6
2023-08-28T10:37:00.771Z,6
2023-08-28T10:37:43.248Z,6
2023-08-28T10:38:55.062Z,6
2023-08-28T10:39:43.275Z,4
2023-08-28T10:40:43.263Z,7
2023-08-28T10:41:43.257Z,6
2023-08-28T10:42:43.268Z,5
2023-08-28T10:43:43.254Z,6
2023-08-28T10:44:43.316Z,6
2023-08-28T10:45:43.259Z,7
2023-08-28T10:46:43.288Z,5
2023-08-28T10:47:43.315Z,6
2023-08-28T10:48:43.261Z,6
2023-08-28T10:49:43.279Z,5
2023-08-28T10:50:43.257Z,5
2023-08-28T10:51:43.276Z,6
2023-08-28T10:52:43.292Z,6
2023-08-28T10:53:43.282Z,5
2023-08-28T10:54:43.283Z,6
2023-08-28T10:55:43.302Z,6
2023-08-28T10:56:43.301Z,6
2023-08-28T10:57:43.259Z,6
2023-08-28T10:58:43.268Z,5
2023-08-28T10:59:43.271Z,7
2023-08-28T11:00:43.289Z,6
2023-08-28T11:01:43.296Z,6
2023-08-28T11:02:43.322Z,5
2023-08-28T11:03:43.265Z,6
2023-08-28T11:04:43.340Z,6
2023-08-28T11:05:43.283Z,6
2023-08-28T11:06:43.291Z,5
2023-08-28T11:07:43.279Z,5
2023-08-28T11:08:43.285Z,5
2023-08-28T11:10:43.270Z,7
2023-08-28T11:11:43.269Z,7
2023-08-28T11:12:43.290Z,6
2023-08-28T11:13:43.283Z,8
2023-08-28T11:14:53.534Z,5
2023-08-28T11:15:43.277Z,8
2023-08-28T11:16:43.316Z,5
2023-08-28T11:17:43.532Z,6
2023-08-28T11:18:43.284Z,7
2023-08-28T11:19:43.293Z,7
2023-08-28T11:20:43.276Z,6
2023-08-28T11:21:43.280Z,7
2023-08-28T11:22:43.277Z,7
2023-08-28T11:23:43.297Z,6
2023-08-28T11:24:43.301Z,8
2023-08-28T11:25:43.264Z,8
2023-08-28T11:26:43.280Z,7
2023-08-28T11:27:43.280Z,8
2023-08-28T11:28:43.324Z,7
2023-08-28T11:29:43.300Z,7
2023-08-28T11:30:43.335Z,8
2023-08-28T11:31:43.288Z,8
2023-08-28T11:33:43.296Z,7
2023-08-28T11:34:43.994Z,8
2023-08-28T11:35:43.268Z,10
2023-08-28T11:36:43.290Z,8
2023-08-28T11:37:43.279Z,8
2023-08-28T11:38:43.326Z,5
2023-08-28T11:39:43.293Z,6
2023-08-28T11:40:43.272Z,6
2023-08-28T11:41:43.269Z,7
2023-08-28T11:42:43.287Z,7
2023-08-28T11:43:43.321Z,8
2023-08-28T11:44:43.273Z,6
2023-08-28T11:45:43.283Z,5
2023-08-28T11:46:43.273Z,6
2023-08-28T11:47:43.307Z,7
2023-08-28T11:48:43.351Z,8
2023-08-28T11:49:43.279Z,6
2023-08-28T11:50:43.276Z,8
2023-08-28T11:51:43.296Z,6
2023-08-28T11:52:43.309Z,6
2023-08-28T11:53:43.865Z,7
2023-08-28T11:56:43.275Z,6
2023-08-28T11:57:43.300Z,5
2023-08-28T11:58:43.601Z,5
2023-08-28T11:59:43.293Z,4
2023-08-28T12:00:43.323Z,4
2023-08-28T12:01:43.330Z,6
2023-08-28T12:02:43.299Z,5
2023-08-28T12:03:43.732Z,6
2023-08-28T12:04:43.295Z,5
2023-08-28T12:05:43.289Z,4
2023-08-28T12:06:43.341Z,4
2023-08-28T12:07:43.364Z,5
2023-08-28T12:09:43.268Z,6
2023-08-28T12:10:43.281Z,3
2023-08-28T12:11:43.297Z,4
2023-08-28T12:12:43.287Z,4
2023-08-28T12:13:43.300Z,4
2023-08-28T12:14:43.294Z,4
2023-08-28T12:15:43.296Z,3
2023-08-28T12:16:43.350Z,5
2023-08-28T12:17:43.314Z,4
2023-08-28T12:18:43.290Z,4
2023-08-28T12:19:43.298Z,4
2023-08-28T12:20:43.326Z,4
2023-08-28T12:21:43.329Z,3
2023-08-28T12:22:43.294Z,4
2023-08-28T12:23:43.279Z,3
2023-08-28T12:24:43.316Z,4
2023-08-28T12:25:43.290Z,6
2023-08-28T12:26:43.305Z,4
2023-08-28T12:27:44.158Z,3
2023-08-28T12:28:43.292Z,3
2023-08-28T12:29:43.388Z,3
2023-08-28T12:30:43.338Z,3
2023-08-28T12:31:43.297Z,3
2023-08-28T12:32:43.334Z,7
2023-08-28T12:33:43.279Z,3
2023-08-28T12:34:43.323Z,4
2023-08-28T12:35:43.317Z,4
2023-08-28T12:36:43.303Z,3
2023-08-28T12:37:43.287Z,3
2023-08-28T12:38:43.272Z,3
2023-08-28T12:39:43.284Z,3
2023-08-28T12:40:43.301Z,3
2023-08-28T12:41:43.298Z,3
2023-08-28T12:42:43.312Z,4
2023-08-28T12:43:43.316Z,4
2023-08-28T12:45:43.380Z,3
2023-08-28T12:46:43.288Z,4
2023-08-28T12:47:43.304Z,3
2023-08-28T12:48:43.340Z,3
2023-08-28T12:50:43.306Z,4
2023-08-28T12:51:43.321Z,3
2023-08-28T12:52:43.292Z,2
2023-08-28T12:53:43.300Z,3
2023-08-28T12:55:43.312Z,3
2023-08-28T12:56:43.310Z,3
2023-08-28T12:57:43.325Z,3
2023-08-28T12:58:43.313Z,3
2023-08-28T13:00:43.292Z,3
2023-08-28T13:01:43.319Z,4
2023-08-28T13:02:43.356Z,4
2023-08-28T13:03:43.413Z,4
2023-08-28T13:05:43.315Z,2
2023-08-28T13:06:43.306Z,3
2023-08-28T13:07:43.296Z,2
2023-08-28T13:08:43.315Z,2
2023-08-28T13:10:43.302Z,4
2023-08-28T13:12:43.360Z,4
2023-08-28T13:13:43.309Z,3
2023-08-28T13:14:43.312Z,2
2023-08-28T13:15:43.308Z,4
2023-08-28T13:16:43.319Z,2
2023-08-28T13:17:43.368Z,2
2023-08-28T13:18:43.311Z,3
2023-08-28T13:19:43.339Z,4
2023-08-28T13:20:43.305Z,3
2023-08-28T13:21:43.292Z,3
2023-08-28T13:22:43.304Z,3
2023-08-28T13:23:43.342Z,2
2023-08-28T13:24:44.900Z,2
2023-08-28T13:25:43.561Z,3
2023-08-28T13:26:43.602Z,3
2023-08-28T13:27:43.295Z,2
2023-08-28T13:28:43.305Z,4
2023-08-28T13:29:43.317Z,3
2023-08-28T13:30:43.329Z,2
2023-08-28T13:31:43.353Z,3
2023-08-28T13:32:43.394Z,3
2023-08-28T13:33:43.339Z,2
2023-08-28T13:34:43.336Z,4
2023-08-28T13:35:43.328Z,3
2023-08-28T13:36:43.304Z,2
2023-08-28T13:37:43.306Z,3
2023-08-28T13:38:43.309Z,3
2023-08-28T13:39:43.316Z,2
2023-08-28T13:41:43.320Z,2
2023-08-28T13:42:43.304Z,2
2023-08-28T13:43:43.306Z,2
2023-08-28T13:45:43.328Z,2
2023-08-28T13:46:43.321Z,3
2023-08-28T13:48:43.324Z,2
2023-08-28T13:49:43.348Z,3
2023-08-28T13:50:43.297Z,3
2023-08-28T13:51:43.320Z,2
2023-08-28T13:52:43.313Z,2
2023-08-28T13:53:43.331Z,2
2023-08-28T13:54:43.338Z,3
2023-08-28T13:56:43.298Z,3
2023-08-28T13:57:43.318Z,3
2023-08-28T13:58:43.322Z,2
2023-08-28T13:59:43.337Z,3
2023-08-28T14:00:43.348Z,3
2023-08-28T14:01:43.347Z,3
2023-08-28T14:02:43.353Z,2
2023-08-28T14:03:43.353Z,2
2023-08-28T14:04:43.341Z,3
2023-08-28T14:05:43.332Z,2
2023-08-28T14:06:43.333Z,3
2023-08-28T14:07:43.359Z,4
2023-08-28T14:08:43.328Z,2
2023-08-28T14:10:43.331Z,3
2023-08-28T14:11:45.719Z,3
2023-08-28T14:12:43.343Z,2
2023-08-28T14:13:43.334Z,3
2023-08-28T14:14:43.410Z,3
2023-08-28T14:15:43.378Z,2
2023-08-28T14:16:43.319Z,3
2023-08-28T14:17:43.400Z,2
2023-08-28T14:18:43.359Z,2
2023-08-28T14:19:43.332Z,2
2023-08-28T14:20:43.329Z,4
2023-08-28T14:21:43.333Z,2
2023-08-28T14:22:43.332Z,2
2023-08-28T14:23:43.366Z,2
2023-08-28T14:24:43.324Z,2
2023-08-28T14:25:43.319Z,2
2023-08-28T14:26:43.359Z,2
2023-08-28T14:27:53.692Z,4
2023-08-28T14:28:43.445Z,2
2023-08-28T14:29:43.339Z,2
2023-08-28T14:30:43.324Z,2
2023-08-28T14:31:43.360Z,3
2023-08-28T14:32:43.420Z,2
2023-08-28T14:33:43.323Z,3
2023-08-28T14:34:43.342Z,3
2023-08-28T14:35:43.396Z,4
2023-08-28T14:37:43.312Z,2
2023-08-28T14:38:43.329Z,3
2023-08-28T14:40:47.196Z,2
2023-08-28T14:41:43.325Z,3
2023-08-28T14:42:43.326Z,3
2023-08-28T14:43:43.333Z,2
2023-08-28T14:44:43.328Z,3
2023-08-28T14:45:43.317Z,3
2023-08-28T14:46:43.432Z,4
2023-08-28T14:47:43.366Z,3
2023-08-28T14:48:43.363Z,3
2023-08-28T14:49:43.362Z,2
2023-08-28T14:50:43.353Z,2
2023-08-28T14:51:43.363Z,2
2023-08-28T14:52:43.335Z,3
2023-08-28T14:53:43.332Z,3
2023-08-28T14:54:43.327Z,2
2023-08-28T14:55:43.324Z,3
2023-08-28T14:56:43.342Z,2
2023-08-28T14:57:43.340Z,3
2023-08-28T14:58:43.351Z,2
2023-08-28T14:59:43.361Z,3
2023-08-28T15:00:43.358Z,2
2023-08-28T15:01:43.319Z,3
2023-08-28T15:02:43.357Z,3
2023-08-28T15:03:43.355Z,4
2023-08-28T15:04:43.389Z,3
2023-08-28T15:05:43.340Z,4
2023-08-28T15:06:43.350Z,2
2023-08-28T15:07:43.345Z,3
2023-08-28T15:08:43.347Z,2
2023-08-28T15:10:43.331Z,3
2023-08-28T15:11:43.326Z,2
2023-08-28T15:12:43.353Z,2
2023-08-28T15:13:43.336Z,3
2023-08-28T15:14:43.365Z,2
2023-08-28T15:15:43.372Z,2
2023-08-28T15:16:43.493Z,4
2023-08-28T15:17:43.373Z,2
2023-08-28T15:18:43.325Z,4
2023-08-28T15:20:43.342Z,3
2023-08-28T15:21:43.444Z,3
2023-08-28T15:22:43.358Z,2
2023-08-28T15:23:43.347Z,3
2023-08-28T15:24:43.327Z,2
2023-08-28T15:25:43.323Z,2
2023-08-28T15:26:43.363Z,2
2023-08-28T15:27:43.343Z,2
2023-08-28T15:28:43.381Z,3
2023-08-28T15:29:43.377Z,2
2023-08-28T15:30:43.373Z,3
2023-08-28T15:31:43.342Z,2
2023-08-28T15:32:43.384Z,3
2023-08-28T15:33:43.356Z,3
2023-08-28T15:34:43.371Z,3
2023-08-28T15:35:43.410Z,2
2023-08-28T15:36:43.370Z,2
2023-08-28T15:37:43.640Z,2
2023-08-28T15:38:43.456Z,2
2023-08-28T15:39:43.369Z,2
2023-08-28T15:40:43.431Z,3
2023-08-28T15:41:43.458Z,2
2023-08-28T15:42:43.346Z,2
2023-08-28T15:43:43.351Z,2
2023-08-28T15:44:43.364Z,2